LVNO2: Poteau River At Loving, OK
Data processed at Sun 19Mar2023 04:02 GMT
All information presented herein is the property of the government of the United States of America and may be revised or deleted at any time without prior notice.
Dissemination of this information without the expressed written consent of the Public Affairs Office, Tulsa District U.S. Army Corps of Engineers is strictly prohibited.
These data are gathered electronically and, as presented, have not undergone any form of quality control. These data are not guaranteed to be valid or correct.
Go to home page.
Go to station list.
Upstream stations:
Downstream station:Previous Day
Next Day
Current Day
SHEF ID: LVNO2 Poteau River at Loving, OK
STATION TYPE:
Regulating: Stage = 20.00, Flow = 4523
STAGE RIV-FLOW
ft cfs
Ccp-Rev Ccp-Rev
(US/Central)
03/18 00:00 12.22 801
03/18 01:00 12.15 775
03/18 02:00 12.09 753
03/18 03:00 12.02 729
03/18 04:00 11.96 707
03/18 05:00 11.92 694
03/18 06:00 11.85 670
03/18 07:00 11.81 656
03/18 08:00 11.76 640
03/18 09:00 11.73 630
03/18 10:00 11.68 613
03/18 11:00 11.63 596
03/18 12:00 11.60 586
03/18 13:00 11.56 573
03/18 14:00 11.53 563
03/18 15:00 11.49 550
03/18 16:00 11.47 544
03/18 17:00 11.44 534
03/18 18:00 11.41 525
03/18 19:00 11.40 522
03/18 20:00 11.38 515
03/18 21:00 11.35 506
03/18 22:00 11.34 503
03/18 23:00 ---- ----